| Date | Time | Temp. (oF) | Dew Point (oF) | Rel. Hum. (%) | Press. (in.) | Wind Dir. | Wind Speed (mph) | Hourly Rainfall (in.) |
|
|---|---|---|---|---|---|---|---|---|---|
| 1 | 03/07 | 00:00 | 36 | 30 | 80 | 29.74 | WSW | 1 | 0.00 |
| 2 | 03/06 | 23:00 | 39 | 31 | 75 | 29.74 | WSW | 1 | 0.00 |
| 3 | 03/06 | 22:00 | 41 | 32 | 72 | 29.74 | S | 2 | 0.00 |
| 4 | 03/06 | 21:00 | 42 | 32 | 69 | 29.73 | SW | 4 | 0.00 |
| 5 | 03/06 | 20:00 | 45 | 33 | 63 | 29.72 | SSW | 2 | 0.00 |
| 6 | 03/06 | 19:00 | 47 | 32 | 58 | 29.71 | W | 2 | 0.00 |
| 7 | 03/06 | 18:00 | 49 | 32 | 52 | 29.68 | SW | 5 | 0.00 |
| 8 | 03/06 | 17:00 | 52 | 32 | 47 | 29.64 | SW | 9 | 0.00 |
| 9 | 03/06 | 16:00 | 53 | 31 | 44 | 29.63 | SW | 10 | 0.00 |
| 10 | 03/06 | 15:00 | 51 | 31 | 48 | 29.64 | SW | 9 | 0.00 |
| 11 | 03/06 | 14:00 | 47 | 30 | 53 | 29.67 | SSW | 12 | 0.00 |
| 12 | 03/06 | 13:00 | 46 | 30 | 55 | 29.74 | SW | 13 | 0.00 |
| 13 | 03/06 | 12:00 | 43 | 28 | 56 | 29.79 | S | 8 | 0.00 |
| 14 | 03/06 | 11:00 | 40 | 27 | 60 | 29.85 | SW | 13 | 0.00 |
| 15 | 03/06 | 10:00 | 37 | 24 | 60 | 29.89 | S | 8 | 0.00 |
| 16 | 03/06 | 09:00 | 35 | 23 | 62 | 29.92 | SSW | 8 | 0.00 |
| 17 | 03/06 | 08:00 | 29 | 20 | 71 | 29.95 | SSW | 3 | 0.00 |
| 18 | 03/06 | 07:00 | 26 | 17 | 70 | 29.96 | SW | 2 | 0.00 |
| 19 | 03/06 | 06:00 | 27 | 17 | 66 | 29.94 | SW | 4 | 0.00 |
| 20 | 03/06 | 05:00 | 28 | 17 | 63 | 29.94 | SW | 3 | 0.00 |
| 21 | 03/06 | 04:00 | 29 | 16 | 60 | 29.96 | WSW | 2 | 0.00 |
| 22 | 03/06 | 03:00 | 30 | 16 | 58 | 29.96 | W | 10 | 0.00 |
| 23 | 03/06 | 02:00 | 29 | 18 | 64 | 29.97 | WNW | 6 | 0.00 |
| 24 | 03/06 | 01:00 | 27 | 19 | 73 | 29.95 | WNW | 5 | 0.00 |